Las Vegas, Nevada
Traffic Map
Current Weather Conditions
Las Vegas, Nevada
Few Clouds
Few Clouds
37°
Feels Like: 37°
Wind Chill: 37° Ceiling: Unl
Heat Index: 37° Visibility: 10mi
Dew Point: 11° Wind: 9mph
Humidity: 21% Direction: 200° (SSW)
Pressure: 29.95in Gusts: 0mph
Raw Report DataKLAS 301856Z 20008KT 10SM FEW110 FEW250 37/11 A2995 RMK AO2 SLP109 T03670111
Traffic Incident Summary
Active as of:
Severity:
Category:
InformationThere was an issue retrieving the traffic information for this location. Please try a different location or try again shortly.
Advertisements
Track Severe Weather on mobile